sensor_id;sensor_type;location;lat;lon;timestamp;noise_LAeq;noise_LA_min;noise_LA_max;noise_LA01;noise_LA95
66449;Laerm;56828;52.294;4.666;2023-05-16T00:00:04;30.43;29.07;34.18;;
66449;Laerm;56828;52.294;4.666;2023-05-16T00:00:18;30.21;28.89;31.66;;
66449;Laerm;56828;52.294;4.666;2023-05-16T00:00:29;30.69;29.10;33.91;;
66449;Laerm;56828;52.294;4.666;2023-05-16T00:00:44;30.41;28.70;35.10;;
66449;Laerm;56828;52.294;4.666;2023-05-16T00:00:54;30.06;28.59;31.78;;
66449;Laerm;56828;52.294;4.666;2023-05-16T00:01:07;30.40;28.79;35.18;;
66449;Laerm;56828;52.294;4.666;2023-05-16T00:01:18;30.48;29.19;33.01;;
66449;Laerm;56828;52.294;4.666;2023-05-16T00:01:28;30.68;28.66;33.68;;
66449;Laerm;56828;52.294;4.666;2023-05-16T00:01:39;30.07;29.00;31.13;;
66449;Laerm;56828;52.294;4.666;2023-05-16T00:01:49;29.90;28.49;31.09;;
66449;Laerm;56828;52.294;4.666;2023-05-16T00:02:00;29.75;28.54;31.28;;
66449;Laerm;56828;52.294;4.666;2023-05-16T00:02:11;29.75;28.76;31.22;;
66449;Laerm;56828;52.294;4.666;2023-05-16T00:02:21;29.90;28.76;31.23;;
66449;Laerm;56828;52.294;4.666;2023-05-16T00:02:31;30.12;28.79;31.71;;
66449;Laerm;56828;52.294;4.666;2023-05-16T00:02:42;30.11;28.92;31.56;;
66449;Laerm;56828;52.294;4.666;2023-05-16T00:02:52;30.34;28.94;31.80;;
66449;Laerm;56828;52.294;4.666;2023-05-16T00:03:03;30.35;29.19;31.86;;
66449;Laerm;56828;52.294;4.666;2023-05-16T00:03:14;30.51;29.24;31.69;;
66449;Laerm;56828;52.294;4.666;2023-05-16T00:03:24;30.34;28.75;34.55;;
66449;Laerm;56828;52.294;4.666;2023-05-16T00:03:34;30.58;29.21;31.75;;
66449;Laerm;56828;52.294;4.666;2023-05-16T00:03:47;30.63;29.19;32.31;;
66449;Laerm;56828;52.294;4.666;2023-05-16T00:03:57;30.34;29.19;31.94;;
66449;Laerm;56828;52.294;4.666;2023-05-16T00:04:07;30.55;29.09;33.07;;
66449;Laerm;56828;52.294;4.666;2023-05-16T00:04:17;30.31;29.12;31.76;;
66449;Laerm;56828;52.294;4.666;2023-05-16T00:04:28;29.97;28.73;31.46;;
66449;Laerm;56828;52.294;4.666;2023-05-16T00:04:38;29.99;28.49;32.46;;
66449;Laerm;56828;52.294;4.666;2023-05-16T00:04:48;31.48;29.21;34.90;;
66449;Laerm;56828;52.294;4.666;2023-05-16T00:04:59;32.77;30.05;36.94;;
66449;Laerm;56828;52.294;4.666;2023-05-16T00:05:10;33.49;30.32;38.78;;
66449;Laerm;56828;52.294;4.666;2023-05-16T00:05:23;33.41;29.81;38.42;;
66449;Laerm;56828;52.294;4.666;2023-05-16T00:05:34;32.71;29.86;38.96;;
66449;Laerm;56828;52.294;4.666;2023-05-16T00:05:45;32.46;29.37;38.46;;
66449;Laerm;56828;52.294;4.666;2023-05-16T00:05:55;32.32;29.70;37.68;;
66449;Laerm;56828;52.294;4.666;2023-05-16T00:06:07;32.29;30.07;36.09;;
66449;Laerm;56828;52.294;4.666;2023-05-16T00:06:18;31.55;28.88;37.95;;
66449;Laerm;56828;52.294;4.666;2023-05-16T00:06:28;30.64;28.95;34.12;;
66449;Laerm;56828;52.294;4.666;2023-05-16T00:06:39;30.33;29.06;32.49;;
66449;Laerm;56828;52.294;4.666;2023-05-16T00:06:49;31.23;29.69;33.65;;
66449;Laerm;56828;52.294;4.666;2023-05-16T00:07:00;31.72;30.11;33.50;;
66449;Laerm;56828;52.294;4.666;2023-05-16T00:07:10;30.32;28.90;32.58;;
66449;Laerm;56828;52.294;4.666;2023-05-16T00:07:20;30.11;28.82;33.06;;
66449;Laerm;56828;52.294;4.666;2023-05-16T00:07:31;30.60;28.77;32.78;;
66449;Laerm;56828;52.294;4.666;2023-05-16T00:07:42;31.26;29.57;34.91;;
66449;Laerm;56828;52.294;4.666;2023-05-16T00:07:53;31.99;29.83;35.20;;
66449;Laerm;56828;52.294;4.666;2023-05-16T00:08:04;30.86;28.41;34.34;;
66449;Laerm;56828;52.294;4.666;2023-05-16T00:08:14;32.23;29.48;37.73;;
66449;Laerm;56828;52.294;4.666;2023-05-16T00:08:25;32.25;28.88;38.12;;
66449;Laerm;56828;52.294;4.666;2023-05-16T00:08:35;32.16;28.60;37.33;;
66449;Laerm;56828;52.294;4.666;2023-05-16T00:08:46;32.90;29.25;37.35;;
66449;Laerm;56828;52.294;4.666;2023-05-16T00:08:56;32.16;29.30;37.33;;
66449;Laerm;56828;52.294;4.666;2023-05-16T00:09:06;33.18;29.82;37.39;;
66449;Laerm;56828;52.294;4.666;2023-05-16T00:09:17;32.65;29.72;38.97;;
66449;Laerm;56828;52.294;4.666;2023-05-16T00:09:27;31.95;29.70;36.81;;
66449;Laerm;56828;52.294;4.666;2023-05-16T00:09:37;30.47;29.10;32.16;;
66449;Laerm;56828;52.294;4.666;2023-05-16T00:09:48;30.83;28.95;35.21;;
66449;Laerm;56828;52.294;4.666;2023-05-16T00:09:58;30.20;28.74;31.85;;
66449;Laerm;56828;52.294;4.666;2023-05-16T00:10:08;30.26;28.50;35.35;;
66449;Laerm;56828;52.294;4.666;2023-05-16T00:10:19;29.84;28.52;31.95;;
66449;Laerm;56828;52.294;4.666;2023-05-16T00:10:29;30.32;29.06;34.31;;
66449;Laerm;56828;52.294;4.666;2023-05-16T00:10:39;30.29;29.27;31.72;;
66449;Laerm;56828;52.294;4.666;2023-05-16T00:10:50;30.13;28.39;31.06;;
66449;Laerm;56828;52.294;4.666;2023-05-16T00:11:00;30.24;28.91;31.55;;
66449;Laerm;56828;52.294;4.666;2023-05-16T00:11:11;30.52;29.18;31.79;;
66449;Laerm;56828;52.294;4.666;2023-05-16T00:11:21;30.45;28.89;31.70;;
66449;Laerm;56828;52.294;4.666;2023-05-16T00:11:32;30.35;29.02;31.75;;
66449;Laerm;56828;52.294;4.666;2023-05-16T00:11:42;30.53;29.27;32.08;;
66449;Laerm;56828;52.294;4.666;2023-05-16T00:11:52;30.55;29.10;32.20;;
66449;Laerm;56828;52.294;4.666;2023-05-16T00:12:03;31.17;29.49;33.67;;
66449;Laerm;56828;52.294;4.666;2023-05-16T00:12:13;30.65;29.12;32.60;;
66449;Laerm;56828;52.294;4.666;2023-05-16T00:12:24;30.48;29.17;34.29;;
66449;Laerm;56828;52.294;4.666;2023-05-16T00:12:34;30.60;29.07;34.56;;
66449;Laerm;56828;52.294;4.666;2023-05-16T00:12:45;31.05;29.11;35.85;;
66449;Laerm;56828;52.294;4.666;2023-05-16T00:13:00;31.52;29.40;36.88;;
66449;Laerm;56828;52.294;4.666;2023-05-16T00:13:11;32.89;30.13;37.37;;
66449;Laerm;56828;52.294;4.666;2023-05-16T00:13:22;32.27;29.71;36.77;;
66449;Laerm;56828;52.294;4.666;2023-05-16T00:13:34;32.73;29.76;35.86;;
66449;Laerm;56828;52.294;4.666;2023-05-16T00:13:45;31.10;29.55;34.16;;
66449;Laerm;56828;52.294;4.666;2023-05-16T00:13:56;30.58;29.45;34.84;;
66449;Laerm;56828;52.294;4.666;2023-05-16T00:14:07;30.93;29.37;32.44;;
66449;Laerm;56828;52.294;4.666;2023-05-16T00:14:18;31.55;29.30;39.02;;
66449;Laerm;56828;52.294;4.666;2023-05-16T00:14:28;32.14;29.85;38.47;;
66449;Laerm;56828;52.294;4.666;2023-05-16T00:14:39;32.62;29.77;39.73;;
66449;Laerm;56828;52.294;4.666;2023-05-16T00:14:49;33.56;30.94;38.60;;
66449;Laerm;56828;52.294;4.666;2023-05-16T00:15:02;37.39;33.26;41.31;;
66449;Laerm;56828;52.294;4.666;2023-05-16T00:15:14;39.35;33.19;44.74;;
66449;Laerm;56828;52.294;4.666;2023-05-16T00:15:24;35.07;30.83;40.04;;
66449;Laerm;56828;52.294;4.666;2023-05-16T00:15:34;30.85;29.44;33.32;;
66449;Laerm;56828;52.294;4.666;2023-05-16T00:15:45;31.00;28.98;34.15;;
66449;Laerm;56828;52.294;4.666;2023-05-16T00:15:56;30.64;29.20;33.61;;
66449;Laerm;56828;52.294;4.666;2023-05-16T00:16:07;30.37;28.91;34.80;;
66449;Laerm;56828;52.294;4.666;2023-05-16T00:16:17;30.57;28.90;35.81;;
66449;Laerm;56828;52.294;4.666;2023-05-16T00:16:30;30.87;29.37;37.00;;
66449;Laerm;56828;52.294;4.666;2023-05-16T00:16:40;30.99;29.39;35.94;;
66449;Laerm;56828;52.294;4.666;2023-05-16T00:16:54;31.67;29.61;37.21;;
66449;Laerm;56828;52.294;4.666;2023-05-16T00:17:07;31.73;29.36;36.89;;
66449;Laerm;56828;52.294;4.666;2023-05-16T00:17:20;32.13;29.21;37.92;;
66449;Laerm;56828;52.294;4.666;2023-05-16T00:17:31;32.56;28.92;38.08;;
66449;Laerm;56828;52.294;4.666;2023-05-16T00:17:41;32.73;29.01;37.68;;
66449;Laerm;56828;52.294;4.666;2023-05-16T00:17:55;31.53;29.20;35.93;;
66449;Laerm;56828;52.294;4.666;2023-05-16T00:18:08;31.31;28.86;37.05;;
66449;Laerm;56828;52.294;4.666;2023-05-16T00:18:19;33.07;29.49;38.68;;
66449;Laerm;56828;52.294;4.666;2023-05-16T00:18:31;30.38;28.53;34.50;;
66449;Laerm;56828;52.294;4.666;2023-05-16T00:18:41;30.55;28.79;34.38;;
66449;Laerm;56828;52.294;4.666;2023-05-16T00:18:54;31.25;28.64;38.44;;
66449;Laerm;56828;52.294;4.666;2023-05-16T00:19:06;33.41;29.79;37.80;;
66449;Laerm;56828;52.294;4.666;2023-05-16T00:19:17;35.40;29.38;40.96;;
66449;Laerm;56828;52.294;4.666;2023-05-16T00:19:28;32.30;29.37;37.82;;
66449;Laerm;56828;52.294;4.666;2023-05-16T00:19:39;33.18;29.74;37.32;;
66449;Laerm;56828;52.294;4.666;2023-05-16T00:19:51;33.28;29.85;37.92;;
66449;Laerm;56828;52.294;4.666;2023-05-16T00:20:07;33.45;29.64;39.03;;
66449;Laerm;56828;52.294;4.666;2023-05-16T00:20:20;32.57;30.14;36.09;;
66449;Laerm;56828;52.294;4.666;2023-05-16T00:20:32;30.97;29.34;33.29;;
66449;Laerm;56828;52.294;4.666;2023-05-16T00:20:44;30.34;29.30;33.31;;
66449;Laerm;56828;52.294;4.666;2023-05-16T00:20:54;30.11;28.65;31.57;;
66449;Laerm;56828;52.294;4.666;2023-05-16T00:21:05;30.62;29.13;32.47;;
66449;Laerm;56828;52.294;4.666;2023-05-16T00:21:15;31.00;28.98;33.91;;
66449;Laerm;56828;52.294;4.666;2023-05-16T00:21:26;31.54;28.85;35.55;;
66449;Laerm;56828;52.294;4.666;2023-05-16T00:21:36;32.95;29.59;38.74;;
66449;Laerm;56828;52.294;4.666;2023-05-16T00:21:46;30.42;28.99;33.36;;
66449;Laerm;56828;52.294;4.666;2023-05-16T00:21:56;32.82;30.27;36.29;;
66449;Laerm;56828;52.294;4.666;2023-05-16T00:22:07;30.85;29.61;33.17;;
66449;Laerm;56828;52.294;4.666;2023-05-16T00:22:17;31.25;29.49;33.88;;
66449;Laerm;56828;52.294;4.666;2023-05-16T00:22:27;32.10;29.62;35.89;;
66449;Laerm;56828;52.294;4.666;2023-05-16T00:22:38;30.80;28.97;36.27;;
66449;Laerm;56828;52.294;4.666;2023-05-16T00:22:49;30.48;28.72;32.72;;
66449;Laerm;56828;52.294;4.666;2023-05-16T00:22:59;30.78;28.94;35.30;;
66449;Laerm;56828;52.294;4.666;2023-05-16T00:23:10;32.26;29.15;38.33;;
66449;Laerm;56828;52.294;4.666;2023-05-16T00:23:21;32.26;29.06;37.78;;
66449;Laerm;56828;52.294;4.666;2023-05-16T00:23:32;32.41;29.69;41.84;;
66449;Laerm;56828;52.294;4.666;2023-05-16T00:23:42;31.80;28.87;37.33;;
66449;Laerm;56828;52.294;4.666;2023-05-16T00:23:53;29.95;28.42;32.56;;
66449;Laerm;56828;52.294;4.666;2023-05-16T00:24:03;29.75;28.51;30.99;;
66449;Laerm;56828;52.294;4.666;2023-05-16T00:24:14;29.86;28.53;31.25;;
66449;Laerm;56828;52.294;4.666;2023-05-16T00:24:24;29.84;28.43;32.86;;
66449;Laerm;56828;52.294;4.666;2023-05-16T00:24:34;29.61;28.30;30.67;;
66449;Laerm;56828;52.294;4.666;2023-05-16T00:24:45;29.66;28.24;32.39;;
66449;Laerm;56828;52.294;4.666;2023-05-16T00:24:55;29.60;28.43;31.20;;
66449;Laerm;56828;52.294;4.666;2023-05-16T00:25:05;29.75;28.41;35.26;;
66449;Laerm;56828;52.294;4.666;2023-05-16T00:25:17;30.57;28.59;35.80;;
66449;Laerm;56828;52.294;4.666;2023-05-16T00:25:28;30.79;28.38;36.48;;
66449;Laerm;56828;52.294;4.666;2023-05-16T00:25:38;30.95;28.72;37.07;;
66449;Laerm;56828;52.294;4.666;2023-05-16T00:25:48;30.58;28.62;36.16;;
66449;Laerm;56828;52.294;4.666;2023-05-16T00:25:58;29.65;28.54;32.27;;
66449;Laerm;56828;52.294;4.666;2023-05-16T00:26:09;29.76;28.41;31.51;;
66449;Laerm;56828;52.294;4.666;2023-05-16T00:26:19;29.60;28.51;30.84;;
66449;Laerm;56828;52.294;4.666;2023-05-16T00:26:30;29.62;28.48;31.24;;
66449;Laerm;56828;52.294;4.666;2023-05-16T00:26:41;29.73;28.56;30.73;;
66449;Laerm;56828;52.294;4.666;2023-05-16T00:26:51;29.82;28.23;31.28;;
66449;Laerm;56828;52.294;4.666;2023-05-16T00:27:01;29.77;28.43;31.33;;
66449;Laerm;56828;52.294;4.666;2023-05-16T00:27:13;30.31;28.97;32.83;;
66449;Laerm;56828;52.294;4.666;2023-05-16T00:27:23;29.92;28.54;31.62;;
66449;Laerm;56828;52.294;4.666;2023-05-16T00:27:34;29.68;28.61;31.02;;
66449;Laerm;56828;52.294;4.666;2023-05-16T00:27:45;29.97;28.76;31.12;;
66449;Laerm;56828;52.294;4.666;2023-05-16T00:27:55;29.88;28.60;31.36;;
66449;Laerm;56828;52.294;4.666;2023-05-16T00:28:06;29.88;28.71;31.22;;
66449;Laerm;56828;52.294;4.666;2023-05-16T00:28:17;30.12;28.55;32.07;;
66449;Laerm;56828;52.294;4.666;2023-05-16T00:28:27;29.82;28.81;31.05;;
66449;Laerm;56828;52.294;4.666;2023-05-16T00:28:37;29.61;28.56;30.83;;
66449;Laerm;56828;52.294;4.666;2023-05-16T00:28:48;29.66;28.40;30.60;;
66449;Laerm;56828;52.294;4.666;2023-05-16T00:28:58;30.02;28.79;31.72;;
66449;Laerm;56828;52.294;4.666;2023-05-16T00:29:08;30.59;29.17;32.75;;
66449;Laerm;56828;52.294;4.666;2023-05-16T00:29:18;30.08;28.81;31.47;;
66449;Laerm;56828;52.294;4.666;2023-05-16T00:29:33;29.88;28.41;31.83;;
66449;Laerm;56828;52.294;4.666;2023-05-16T00:29:43;29.72;28.38;31.43;;
66449;Laerm;56828;52.294;4.666;2023-05-16T00:29:54;29.83;28.81;31.00;;
66449;Laerm;56828;52.294;4.666;2023-05-16T00:30:05;29.82;28.66;30.88;;
66449;Laerm;56828;52.294;4.666;2023-05-16T00:30:16;29.68;28.54;31.05;;
66449;Laerm;56828;52.294;4.666;2023-05-16T00:30:26;29.78;28.68;31.03;;
66449;Laerm;56828;52.294;4.666;2023-05-16T00:30:36;29.56;28.15;30.66;;
66449;Laerm;56828;52.294;4.666;2023-05-16T00:30:47;29.54;28.58;30.62;;
66449;Laerm;56828;52.294;4.666;2023-05-16T00:30:57;29.68;28.52;31.29;;
66449;Laerm;56828;52.294;4.666;2023-05-16T00:31:08;29.73;28.37;31.70;;
66449;Laerm;56828;52.294;4.666;2023-05-16T00:31:18;29.88;28.30;31.40;;
66449;Laerm;56828;52.294;4.666;2023-05-16T00:31:29;29.77;28.62;31.10;;
66449;Laerm;56828;52.294;4.666;2023-05-16T00:31:39;29.82;28.56;31.05;;
66449;Laerm;56828;52.294;4.666;2023-05-16T00:31:49;30.21;28.83;32.48;;
66449;Laerm;56828;52.294;4.666;2023-05-16T00:32:00;30.05;28.86;31.38;;
66449;Laerm;56828;52.294;4.666;2023-05-16T00:32:10;29.95;28.57;31.57;;
66449;Laerm;56828;52.294;4.666;2023-05-16T00:32:20;29.77;28.78;30.92;;
66449;Laerm;56828;52.294;4.666;2023-05-16T00:32:31;29.91;28.62;31.53;;
66449;Laerm;56828;52.294;4.666;2023-05-16T00:32:41;30.00;28.72;31.09;;
66449;Laerm;56828;52.294;4.666;2023-05-16T00:32:53;30.13;28.43;31.85;;
66449;Laerm;56828;52.294;4.666;2023-05-16T00:33:03;30.28;29.07;35.14;;
66449;Laerm;56828;52.294;4.666;2023-05-16T00:33:13;30.02;28.72;31.65;;
66449;Laerm;56828;52.294;4.666;2023-05-16T00:33:23;30.29;28.94;31.67;;
66449;Laerm;56828;52.294;4.666;2023-05-16T00:33:34;29.98;28.76;31.65;;
66449;Laerm;56828;52.294;4.666;2023-05-16T00:33:44;30.41;29.03;31.88;;
66449;Laerm;56828;52.294;4.666;2023-05-16T00:33:55;30.44;29.13;31.99;;
66449;Laerm;56828;52.294;4.666;2023-05-16T00:34:05;30.79;29.28;35.08;;
66449;Laerm;56828;52.294;4.666;2023-05-16T00:34:15;30.43;29.20;32.12;;
66449;Laerm;56828;52.294;4.666;2023-05-16T00:34:26;30.06;28.90;31.28;;
66449;Laerm;56828;52.294;4.666;2023-05-16T00:34:36;30.07;28.83;33.46;;
66449;Laerm;56828;52.294;4.666;2023-05-16T00:34:47;30.05;28.62;32.23;;
66449;Laerm;56828;52.294;4.666;2023-05-16T00:34:57;30.11;28.96;31.37;;
66449;Laerm;56828;52.294;4.666;2023-05-16T00:35:07;31.65;29.28;35.15;;
66449;Laerm;56828;52.294;4.666;2023-05-16T00:35:20;31.12;28.84;33.32;;
66449;Laerm;56828;52.294;4.666;2023-05-16T00:35:30;32.33;28.42;35.75;;
66449;Laerm;56828;52.294;4.666;2023-05-16T00:35:41;30.65;28.91;34.32;;
66449;Laerm;56828;52.294;4.666;2023-05-16T00:35:51;30.23;28.44;32.78;;
66449;Laerm;56828;52.294;4.666;2023-05-16T00:36:02;29.98;28.67;31.47;;
66449;Laerm;56828;52.294;4.666;2023-05-16T00:36:13;29.89;28.63;32.34;;
66449;Laerm;56828;52.294;4.666;2023-05-16T00:36:23;29.69;28.40;30.74;;
66449;Laerm;56828;52.294;4.666;2023-05-16T00:36:33;29.72;28.61;31.17;;
66449;Laerm;56828;52.294;4.666;2023-05-16T00:36:44;29.81;28.57;31.59;;
66449;Laerm;56828;52.294;4.666;2023-05-16T00:36:55;30.09;28.78;33.20;;
66449;Laerm;56828;52.294;4.666;2023-05-16T00:37:05;30.12;28.53;33.05;;
66449;Laerm;56828;52.294;4.666;2023-05-16T00:37:15;30.45;28.78;34.85;;
66449;Laerm;56828;52.294;4.666;2023-05-16T00:37:26;31.40;28.73;39.02;;
66449;Laerm;56828;52.294;4.666;2023-05-16T00:37:36;31.04;28.46;38.89;;
66449;Laerm;56828;52.294;4.666;2023-05-16T00:37:47;30.07;28.54;32.24;;
66449;Laerm;56828;52.294;4.666;2023-05-16T00:37:57;29.73;28.51;30.93;;
66449;Laerm;56828;52.294;4.666;2023-05-16T00:38:08;29.92;28.45;31.48;;
66449;Laerm;56828;52.294;4.666;2023-05-16T00:38:18;30.03;28.74;32.28;;
66449;Laerm;56828;52.294;4.666;2023-05-16T00:38:28;29.80;28.76;31.57;;
66449;Laerm;56828;52.294;4.666;2023-05-16T00:38:39;30.07;28.80;31.95;;
66449;Laerm;56828;52.294;4.666;2023-05-16T00:38:49;30.16;28.81;32.00;;
66449;Laerm;56828;52.294;4.666;2023-05-16T00:38:59;31.96;28.92;42.76;;
66449;Laerm;56828;52.294;4.666;2023-05-16T00:39:10;37.18;30.70;43.16;;
66449;Laerm;56828;52.294;4.666;2023-05-16T00:39:20;36.32;29.86;45.32;;
66449;Laerm;56828;52.294;4.666;2023-05-16T00:39:30;35.89;30.09;44.89;;
66449;Laerm;56828;52.294;4.666;2023-05-16T00:39:41;34.45;30.08;41.57;;
66449;Laerm;56828;52.294;4.666;2023-05-16T00:39:51;33.63;30.03;38.92;;
66449;Laerm;56828;52.294;4.666;2023-05-16T00:40:01;32.67;30.20;36.57;;
66449;Laerm;56828;52.294;4.666;2023-05-16T00:40:12;32.93;29.51;36.16;;
66449;Laerm;56828;52.294;4.666;2023-05-16T00:40:22;32.48;29.59;36.88;;
66449;Laerm;56828;52.294;4.666;2023-05-16T00:40:32;30.57;28.78;33.69;;
66449;Laerm;56828;52.294;4.666;2023-05-16T00:40:43;30.05;28.60;32.72;;
66449;Laerm;56828;52.294;4.666;2023-05-16T00:40:53;29.86;28.30;35.09;;
66449;Laerm;56828;52.294;4.666;2023-05-16T00:41:03;29.80;28.56;31.72;;
66449;Laerm;56828;52.294;4.666;2023-05-16T00:41:13;29.66;28.44;30.73;;
66449;Laerm;56828;52.294;4.666;2023-05-16T00:41:24;29.62;28.53;30.85;;
66449;Laerm;56828;52.294;4.666;2023-05-16T00:41:35;29.62;28.59;30.67;;
66449;Laerm;56828;52.294;4.666;2023-05-16T00:41:45;29.46;28.47;30.53;;
66449;Laerm;56828;52.294;4.666;2023-05-16T00:41:55;30.09;28.79;31.68;;
66449;Laerm;56828;52.294;4.666;2023-05-16T00:42:06;29.71;28.55;31.12;;
66449;Laerm;56828;52.294;4.666;2023-05-16T00:42:19;30.89;28.89;34.68;;
66449;Laerm;56828;52.294;4.666;2023-05-16T00:42:30;29.91;28.54;31.77;;
66449;Laerm;56828;52.294;4.666;2023-05-16T00:42:40;30.61;28.73;34.30;;
66449;Laerm;56828;52.294;4.666;2023-05-16T00:42:50;30.79;29.00;33.00;;
66449;Laerm;56828;52.294;4.666;2023-05-16T00:43:01;30.77;28.74;33.47;;
66449;Laerm;56828;52.294;4.666;2023-05-16T00:43:11;31.35;28.94;36.04;;
66449;Laerm;56828;52.294;4.666;2023-05-16T00:43:21;30.16;28.97;31.48;;
66449;Laerm;56828;52.294;4.666;2023-05-16T00:43:32;30.33;29.14;32.00;;
66449;Laerm;56828;52.294;4.666;2023-05-16T00:43:42;30.22;28.91;32.02;;
66449;Laerm;56828;52.294;4.666;2023-05-16T00:43:52;30.44;29.00;31.95;;
66449;Laerm;56828;52.294;4.666;2023-05-16T00:44:03;30.56;29.02;32.83;;
66449;Laerm;56828;52.294;4.666;2023-05-16T00:44:13;30.12;28.58;31.94;;
66449;Laerm;56828;52.294;4.666;2023-05-16T00:44:23;30.66;28.88;32.60;;
66449;Laerm;56828;52.294;4.666;2023-05-16T00:44:34;31.70;28.97;37.45;;
66449;Laerm;56828;52.294;4.666;2023-05-16T00:44:44;31.23;29.14;35.75;;
66449;Laerm;56828;52.294;4.666;2023-05-16T00:44:55;31.47;29.11;34.98;;
66449;Laerm;56828;52.294;4.666;2023-05-16T00:45:06;31.92;29.23;35.23;;
66449;Laerm;56828;52.294;4.666;2023-05-16T00:45:16;30.83;29.20;34.21;;
66449;Laerm;56828;52.294;4.666;2023-05-16T00:45:27;32.93;28.68;37.10;;
66449;Laerm;56828;52.294;4.666;2023-05-16T00:45:37;31.01;29.01;35.47;;
66449;Laerm;56828;52.294;4.666;2023-05-16T00:45:48;30.40;28.58;32.91;;
66449;Laerm;56828;52.294;4.666;2023-05-16T00:45:58;30.27;28.76;32.06;;
66449;Laerm;56828;52.294;4.666;2023-05-16T00:46:09;30.00;28.67;31.80;;
66449;Laerm;56828;52.294;4.666;2023-05-16T00:46:19;29.75;28.50;31.12;;
66449;Laerm;56828;52.294;4.666;2023-05-16T00:46:30;29.63;28.41;31.35;;
66449;Laerm;56828;52.294;4.666;2023-05-16T00:46:40;30.09;28.29;32.45;;
66449;Laerm;56828;52.294;4.666;2023-05-16T00:46:50;30.51;28.58;34.16;;
66449;Laerm;56828;52.294;4.666;2023-05-16T00:47:01;31.39;28.99;34.33;;
66449;Laerm;56828;52.294;4.666;2023-05-16T00:47:13;31.69;28.79;37.53;;
66449;Laerm;56828;52.294;4.666;2023-05-16T00:47:23;31.70;28.54;35.23;;
66449;Laerm;56828;52.294;4.666;2023-05-16T00:47:34;31.91;28.95;36.51;;
66449;Laerm;56828;52.294;4.666;2023-05-16T00:47:44;31.72;29.25;35.30;;
66449;Laerm;56828;52.294;4.666;2023-05-16T00:47:55;31.24;28.63;36.48;;
66449;Laerm;56828;52.294;4.666;2023-05-16T00:48:05;31.01;29.09;33.63;;
66449;Laerm;56828;52.294;4.666;2023-05-16T00:48:15;31.47;29.28;35.59;;
66449;Laerm;56828;52.294;4.666;2023-05-16T00:48:26;31.80;29.67;34.89;;
66449;Laerm;56828;52.294;4.666;2023-05-16T00:48:36;32.44;29.06;36.66;;
66449;Laerm;56828;52.294;4.666;2023-05-16T00:48:47;32.92;29.38;37.76;;
66449;Laerm;56828;52.294;4.666;2023-05-16T00:48:57;32.65;29.42;39.00;;
66449;Laerm;56828;52.294;4.666;2023-05-16T00:49:08;30.94;29.19;36.49;;
66449;Laerm;56828;52.294;4.666;2023-05-16T00:49:18;30.07;28.54;33.24;;
66449;Laerm;56828;52.294;4.666;2023-05-16T00:49:28;29.99;28.47;35.39;;
66449;Laerm;56828;52.294;4.666;2023-05-16T00:49:39;30.78;29.33;33.29;;
66449;Laerm;56828;52.294;4.666;2023-05-16T00:49:49;30.31;28.53;32.40;;
66449;Laerm;56828;52.294;4.666;2023-05-16T00:49:59;30.38;28.86;31.99;;
66449;Laerm;56828;52.294;4.666;2023-05-16T00:50:10;30.57;29.14;34.50;;
66449;Laerm;56828;52.294;4.666;2023-05-16T00:50:20;30.67;28.83;39.78;;
66449;Laerm;56828;52.294;4.666;2023-05-16T00:50:32;30.25;28.30;34.35;;
66449;Laerm;56828;52.294;4.666;2023-05-16T00:50:42;30.29;28.53;35.78;;
66449;Laerm;56828;52.294;4.666;2023-05-16T00:50:53;29.81;28.72;31.45;;
66449;Laerm;56828;52.294;4.666;2023-05-16T00:51:03;30.18;28.57;36.67;;
66449;Laerm;56828;52.294;4.666;2023-05-16T00:51:18;30.88;28.65;40.92;;
66449;Laerm;56828;52.294;4.666;2023-05-16T00:51:28;30.75;28.77;41.87;;
66449;Laerm;56828;52.294;4.666;2023-05-16T00:51:39;30.56;28.69;38.39;;
66449;Laerm;56828;52.294;4.666;2023-05-16T00:51:50;30.41;28.80;37.20;;
66449;Laerm;56828;52.294;4.666;2023-05-16T00:52:01;30.99;28.75;36.88;;
66449;Laerm;56828;52.294;4.666;2023-05-16T00:52:12;30.82;28.57;34.82;;
66449;Laerm;56828;52.294;4.666;2023-05-16T00:52:22;30.13;28.44;34.14;;
66449;Laerm;56828;52.294;4.666;2023-05-16T00:52:33;30.09;28.62;34.06;;
66449;Laerm;56828;52.294;4.666;2023-05-16T00:52:43;30.64;28.78;34.73;;
66449;Laerm;56828;52.294;4.666;2023-05-16T00:52:54;30.41;28.48;33.13;;
66449;Laerm;56828;52.294;4.666;2023-05-16T00:53:04;30.35;28.90;33.30;;
66449;Laerm;56828;52.294;4.666;2023-05-16T00:53:15;30.34;28.54;35.02;;
66449;Laerm;56828;52.294;4.666;2023-05-16T00:53:25;30.38;28.99;35.44;;
66449;Laerm;56828;52.294;4.666;2023-05-16T00:53:36;29.90;28.61;32.55;;
66449;Laerm;56828;52.294;4.666;2023-05-16T00:53:46;30.03;28.80;31.50;;
66449;Laerm;56828;52.294;4.666;2023-05-16T00:53:57;29.71;28.44;31.56;;
66449;Laerm;56828;52.294;4.666;2023-05-16T00:54:07;29.75;28.51;31.53;;
66449;Laerm;56828;52.294;4.666;2023-05-16T00:54:19;30.65;28.81;32.93;;
66449;Laerm;56828;52.294;4.666;2023-05-16T00:54:31;30.64;28.70;33.21;;
66449;Laerm;56828;52.294;4.666;2023-05-16T00:54:41;30.30;28.86;33.01;;
66449;Laerm;56828;52.294;4.666;2023-05-16T00:54:51;29.95;27.88;31.59;;
66449;Laerm;56828;52.294;4.666;2023-05-16T00:55:03;29.98;28.66;31.48;;
66449;Laerm;56828;52.294;4.666;2023-05-16T00:55:17;29.94;28.31;31.11;;
66449;Laerm;56828;52.294;4.666;2023-05-16T00:55:27;30.21;28.80;33.37;;
66449;Laerm;56828;52.294;4.666;2023-05-16T00:55:37;29.81;28.59;32.94;;
66449;Laerm;56828;52.294;4.666;2023-05-16T00:55:47;29.53;28.45;30.91;;
66449;Laerm;56828;52.294;4.666;2023-05-16T00:55:58;29.67;28.44;31.32;;
66449;Laerm;56828;52.294;4.666;2023-05-16T00:56:09;29.87;28.40;32.24;;
66449;Laerm;56828;52.294;4.666;2023-05-16T00:56:19;29.85;28.61;34.87;;
66449;Laerm;56828;52.294;4.666;2023-05-16T00:56:30;30.07;28.65;35.98;;
66449;Laerm;56828;52.294;4.666;2023-05-16T00:56:41;30.12;28.56;32.26;;
66449;Laerm;56828;52.294;4.666;2023-05-16T00:56:51;29.94;28.71;33.79;;
66449;Laerm;56828;52.294;4.666;2023-05-16T00:57:02;31.47;29.20;33.95;;
66449;Laerm;56828;52.294;4.666;2023-05-16T00:57:14;30.73;28.64;36.25;;
66449;Laerm;56828;52.294;4.666;2023-05-16T00:57:25;30.15;28.94;32.12;;
66449;Laerm;56828;52.294;4.666;2023-05-16T00:57:36;30.38;28.87;32.23;;
66449;Laerm;56828;52.294;4.666;2023-05-16T00:57:46;30.73;28.72;34.33;;
66449;Laerm;56828;52.294;4.666;2023-05-16T00:57:57;30.32;28.73;35.89;;
66449;Laerm;56828;52.294;4.666;2023-05-16T00:58:08;30.18;28.76;34.44;;
66449;Laerm;56828;52.294;4.666;2023-05-16T00:58:20;30.05;28.61;33.15;;
66449;Laerm;56828;52.294;4.666;2023-05-16T00:58:31;29.82;28.52;31.07;;
66449;Laerm;56828;52.294;4.666;2023-05-16T00:58:43;30.26;28.71;35.48;;
66449;Laerm;56828;52.294;4.666;2023-05-16T00:58:53;29.99;28.69;33.97;;
66449;Laerm;56828;52.294;4.666;2023-05-16T00:59:03;29.85;28.38;33.01;;
66449;Laerm;56828;52.294;4.666;2023-05-16T00:59:14;29.83;28.14;33.62;;
66449;Laerm;56828;52.294;4.666;2023-05-16T00:59:25;30.25;28.54;35.88;;
66449;Laerm;56828;52.294;4.666;2023-05-16T00:59:36;31.00;28.64;37.96;;
66449;Laerm;56828;52.294;4.666;2023-05-16T00:59:46;29.90;28.67;33.07;;
66449;Laerm;56828;52.294;4.666;2023-05-16T00:59:56;30.85;28.20;36.78;;
66449;Laerm;56828;52.294;4.666;2023-05-16T01:00:07;29.91;28.55;32.44;;